createdAt,value
2019-03-16T00:03:47.842Z,99635.20
2019-03-16T00:07:51.447Z,99656.16
2019-03-16T00:11:55.160Z,99657.22
2019-03-16T00:15:59.021Z,99656.87
2019-03-16T00:20:02.596Z,99658.73
2019-03-16T00:24:06.317Z,99664.98
2019-03-16T00:28:09.967Z,99685.84
2019-03-16T00:32:13.942Z,99689.56
2019-03-16T00:36:17.763Z,99688.77
2019-03-16T00:40:21.441Z,99688.77
2019-03-16T00:44:25.120Z,99698.05
2019-03-16T00:48:28.778Z,99695.94
2019-03-16T00:52:32.401Z,99697.07
2019-03-16T00:56:36.055Z,99705.00
2019-03-16T01:00:39.749Z,99717.70
2019-03-16T01:04:43.378Z,99720.00
2019-03-16T01:08:46.988Z,99727.52
2019-03-16T01:12:50.706Z,99739.95
2019-03-16T01:16:54.326Z,99734.30
2019-03-16T01:20:58.007Z,99742.66
2019-03-16T01:25:01.784Z,99747.41
2019-03-16T01:29:05.490Z,99746.00
2019-03-16T01:33:09.196Z,99755.39
2019-03-16T01:37:12.737Z,99760.52
2019-03-16T01:41:16.370Z,99761.09
2019-03-16T01:45:20.038Z,99761.86
2019-03-16T01:49:23.723Z,99775.43
2019-03-16T01:53:27.409Z,99774.91
2019-03-16T01:57:31.094Z,99786.73
2019-03-16T02:01:34.845Z,99789.02
2019-03-16T02:05:38.605Z,99786.81
2019-03-16T02:09:42.162Z,99782.84
2019-03-16T02:13:45.860Z,99799.18
2019-03-16T02:17:49.577Z,99802.90
2019-03-16T02:21:53.192Z,99811.54
2019-03-16T02:25:56.811Z,99820.72
2019-03-16T02:30:03.263Z,99816.50
2019-03-16T02:34:06.979Z,99818.51
2019-03-16T02:38:10.657Z,99821.43
2019-03-16T02:42:14.282Z,99827.23
2019-03-16T02:46:18.040Z,99825.20
2019-03-16T02:50:21.772Z,99840.40
2019-03-16T02:54:25.459Z,99837.30
2019-03-16T02:58:29.081Z,99843.97
2019-03-16T03:02:32.911Z,99856.93
2019-03-16T03:06:36.482Z,99864.73
2019-03-16T03:10:41.239Z,99866.86
2019-03-16T03:14:44.857Z,99870.33
2019-03-16T03:18:49.879Z,99877.92
2019-03-16T03:22:53.843Z,99883.78
2019-03-16T03:26:57.448Z,99886.13
2019-03-16T03:31:01.009Z,99894.89
2019-03-16T03:35:05.725Z,99900.55
2019-03-16T03:39:09.431Z,99902.70
2019-03-16T03:43:13.249Z,99908.77
2019-03-16T03:47:17.504Z,99897.45
2019-03-16T03:51:21.284Z,99915.14
2019-03-16T03:55:25.162Z,99919.27
2019-03-16T03:59:28.821Z,99916.00
2019-03-16T04:03:32.807Z,99922.08
2019-03-16T04:07:36.728Z,99917.28
2019-03-16T04:11:40.311Z,99905.25
2019-03-16T04:15:43.874Z,99902.39
2019-03-16T04:19:47.563Z,99905.14
2019-03-16T04:23:51.436Z,99911.92
2019-03-16T04:27:55.134Z,99926.95
2019-03-16T04:31:58.816Z,99932.98
2019-03-16T04:36:02.567Z,99932.77
2019-03-16T04:40:08.746Z,99935.33
2019-03-16T04:44:12.483Z,99939.55
2019-03-16T04:48:16.166Z,99941.58
2019-03-16T04:52:19.835Z,99943.62
2019-03-16T04:56:23.539Z,99945.20
2019-03-16T05:00:27.219Z,99940.05
2019-03-16T05:04:42.033Z,99947.59
2019-03-16T05:08:36.192Z,99950.34
2019-03-16T05:12:39.943Z,99951.64
2019-03-16T05:16:43.528Z,99968.30
2019-03-16T05:20:47.394Z,99963.92
2019-03-16T05:24:51.003Z,99976.56
2019-03-16T05:28:54.705Z,99982.47
2019-03-16T05:32:58.454Z,99988.22
2019-03-16T05:37:02.154Z,99992.33
2019-03-16T05:41:05.903Z,99992.77
2019-03-16T05:45:10.146Z,100004.13
2019-03-16T05:49:13.813Z,100011.51
2019-03-16T05:53:18.065Z,100005.67
2019-03-16T05:57:21.772Z,100007.27
2019-03-16T06:01:25.448Z,100015.11
2019-03-16T06:05:29.191Z,100017.99
2019-03-16T06:09:32.957Z,100023.48
2019-03-16T06:13:36.777Z,100021.55
2019-03-16T06:17:40.693Z,100024.45
2019-03-16T06:21:44.819Z,100011.09
2019-03-16T06:25:48.789Z,100023.75
2019-03-16T06:29:52.410Z,100030.52
2019-03-16T06:33:56.236Z,100029.01
2019-03-16T06:37:59.891Z,100028.13
2019-03-16T06:42:03.672Z,100026.00
2019-03-16T06:46:07.559Z,100021.89
2019-03-16T06:50:15.521Z,100022.91
2019-03-16T06:54:19.305Z,100024.34
2019-03-16T06:58:22.891Z,100024.73
2019-03-16T07:02:26.522Z,100023.37
2019-03-16T07:06:30.317Z,100030.59
2019-03-16T07:10:34.087Z,100031.16
2019-03-16T07:14:37.843Z,100028.09
2019-03-16T07:18:42.381Z,100026.14
2019-03-16T07:22:46.001Z,100035.19
2019-03-16T07:26:49.670Z,100041.68
2019-03-16T07:30:53.321Z,100039.83
2019-03-16T07:34:57.025Z,100041.52
2019-03-16T07:39:00.659Z,100050.97
2019-03-16T07:43:04.303Z,100044.95
2019-03-16T07:47:07.980Z,100046.77
2019-03-16T07:51:12.670Z,100041.47
2019-03-16T07:55:16.276Z,100046.12
2019-03-16T07:59:19.830Z,100047.42
2019-03-16T08:03:23.438Z,100051.30
2019-03-16T08:07:27.195Z,100044.23
2019-03-16T08:11:30.754Z,100045.52
2019-03-16T08:15:34.507Z,100029.12
2019-03-16T08:19:38.129Z,100028.77
2019-03-16T08:23:42.120Z,100018.57
2019-03-16T08:27:54.039Z,100021.21
2019-03-16T08:31:51.401Z,100021.18
2019-03-16T08:35:55.184Z,100017.27
2019-03-16T08:39:58.939Z,100021.23
2019-03-16T08:44:02.670Z,100029.89
2019-03-16T08:48:06.376Z,100030.52
2019-03-16T08:52:10.081Z,100035.67
2019-03-16T08:56:13.985Z,100038.25
2019-03-16T09:00:18.089Z,100043.59
2019-03-16T09:04:21.900Z,100044.11
2019-03-16T09:08:25.435Z,100039.97
2019-03-16T09:12:28.994Z,100052.16
2019-03-16T09:16:32.878Z,100058.14
2019-03-16T09:20:36.629Z,100051.45
2019-03-16T09:24:41.205Z,100068.48
2019-03-16T09:28:44.859Z,100058.17
2019-03-16T09:32:48.664Z,100066.31
2019-03-16T09:36:52.344Z,100065.71
2019-03-16T09:40:56.025Z,100074.77
2019-03-16T09:44:59.614Z,100068.13
2019-03-16T09:49:03.288Z,100066.84
2019-03-16T09:53:06.908Z,100068.05
2019-03-16T09:57:10.594Z,100066.87
2019-03-16T10:01:15.448Z,100074.02
2019-03-16T10:05:19.090Z,100069.33
2019-03-16T10:09:22.760Z,100072.53
2019-03-16T10:13:26.440Z,100066.98
2019-03-16T10:17:30.153Z,100062.88
2019-03-16T10:21:33.681Z,100060.64
2019-03-16T10:25:37.397Z,100054.35
2019-03-16T10:29:41.145Z,100052.86
2019-03-16T10:33:44.889Z,100037.70
2019-03-16T10:37:48.515Z,100021.31
2019-03-16T10:41:52.249Z,100015.44
2019-03-16T10:45:58.044Z,100010.42
2019-03-16T10:50:01.769Z,99997.78
2019-03-16T10:54:05.479Z,99997.78
2019-03-16T10:58:09.083Z,99991.26
2019-03-16T11:02:12.763Z,99983.14
2019-03-16T11:06:16.378Z,99972.11
2019-03-16T11:10:23.195Z,99966.86
2019-03-16T11:14:26.886Z,99962.37
2019-03-16T11:18:30.746Z,99952.02
2019-03-16T11:22:34.353Z,99948.91
2019-03-16T11:26:37.974Z,99933.04
2019-03-16T11:30:42.473Z,99931.16
2019-03-16T11:34:46.195Z,99928.99
2019-03-16T11:38:50.043Z,99924.02
2019-03-16T11:42:54.068Z,99923.74
2019-03-16T11:46:57.654Z,99916.97
2019-03-16T11:51:01.397Z,99915.91
2019-03-16T11:55:07.504Z,99902.19
2019-03-16T11:59:21.054Z,99894.94
2019-03-16T12:03:16.801Z,99896.94
2019-03-16T12:07:20.410Z,99885.30
2019-03-16T12:11:24.019Z,99886.84
2019-03-16T12:15:27.872Z,99870.13
2019-03-16T12:19:31.559Z,99870.13
2019-03-16T12:23:35.165Z,99861.52
2019-03-16T12:27:38.935Z,99852.80
2019-03-16T12:31:42.813Z,99841.78
2019-03-16T12:35:46.564Z,99835.27
2019-03-16T12:39:50.376Z,99823.45
2019-03-16T12:43:54.201Z,99821.45
2019-03-16T12:47:57.853Z,99809.13
2019-03-16T12:52:01.556Z,99804.69
2019-03-16T12:56:05.240Z,99802.50
2019-03-16T13:00:16.928Z,99806.83
2019-03-16T13:04:22.250Z,99749.16
2019-03-16T13:08:26.044Z,99776.88
2019-03-16T13:12:29.997Z,99783.44
2019-03-16T13:16:37.159Z,99769.75
2019-03-16T13:20:40.161Z,99756.95
2019-03-16T13:24:44.214Z,99772.09
2019-03-16T13:28:48.357Z,99763.27
2019-03-16T13:32:52.065Z,99767.60
2019-03-16T13:36:55.962Z,99748.23
2019-03-16T13:40:59.932Z,99736.92
2019-03-16T13:45:03.871Z,99733.72
2019-03-16T13:49:07.937Z,99722.95
2019-03-16T13:53:14.870Z,99712.66
2019-03-16T13:57:18.590Z,99703.59
2019-03-16T14:01:23.858Z,99698.75
2019-03-16T14:05:28.221Z,99692.66
2019-03-16T14:09:31.917Z,99686.34
2019-03-16T14:13:36.136Z,99679.30
2019-03-16T14:17:40.305Z,99670.65
2019-03-16T14:21:43.925Z,99660.42
2019-03-16T14:25:47.796Z,99653.94
2019-03-16T14:29:51.398Z,99647.33
2019-03-16T14:33:55.330Z,99643.74
2019-03-16T14:37:59.319Z,99639.08
2019-03-16T14:42:03.391Z,99637.31
2019-03-16T14:46:07.360Z,99632.48
2019-03-16T14:50:20.346Z,99621.50
2019-03-16T14:54:24.256Z,99610.95
2019-03-16T14:58:28.882Z,99602.97
2019-03-16T15:02:32.685Z,99611.34
2019-03-16T15:06:36.515Z,99605.80
2019-03-16T15:10:40.160Z,99599.58
2019-03-16T15:14:44.494Z,99602.20
2019-03-16T15:18:48.390Z,99599.78
2019-03-16T15:22:53.523Z,99591.80
2019-03-16T15:26:57.718Z,99585.18
2019-03-16T15:31:01.559Z,99582.19
2019-03-16T15:35:07.333Z,99562.31
2019-03-16T15:39:11.408Z,99553.69
2019-03-16T15:43:15.222Z,99549.22
2019-03-16T15:47:19.000Z,99554.98
2019-03-16T15:51:24.008Z,99544.59
2019-03-16T15:55:28.424Z,99548.55
2019-03-16T15:59:32.432Z,99543.97
2019-03-16T16:03:36.137Z,99543.59
2019-03-16T16:07:39.744Z,99542.63
2019-03-16T16:11:43.487Z,99528.81
2019-03-16T16:15:47.183Z,99523.76
2019-03-16T16:19:50.887Z,99513.83
2019-03-16T16:23:54.548Z,99514.86
2019-03-16T16:27:58.145Z,99507.28
2019-03-16T16:32:01.800Z,99504.89
2019-03-16T16:36:08.314Z,99499.55
2019-03-16T16:40:13.412Z,99496.23
2019-03-16T16:44:17.096Z,99496.44
2019-03-16T16:48:20.699Z,99502.28
2019-03-16T16:52:24.509Z,99482.91
2019-03-16T16:56:28.206Z,99489.14
2019-03-16T17:00:32.080Z,99482.23
2019-03-16T17:04:35.688Z,99485.13
2019-03-16T17:08:39.290Z,99479.33
2019-03-16T17:12:43.134Z,99473.88
2019-03-16T17:16:47.964Z,99467.47
2019-03-16T17:20:51.819Z,99461.88
2019-03-16T17:24:55.944Z,99469.02
2019-03-16T17:28:59.544Z,99450.02
2019-03-16T17:33:03.514Z,99468.41
2019-03-16T17:37:07.118Z,99471.99
2019-03-16T17:41:10.870Z,99472.04
2019-03-16T17:45:14.944Z,99479.29
2019-03-16T17:49:18.581Z,99471.99
2019-03-16T17:53:22.217Z,99472.08
2019-03-16T17:57:25.826Z,99474.21
2019-03-16T18:01:29.427Z,99472.59
2019-03-16T18:05:33.067Z,99471.86
2019-03-16T18:09:37.275Z,99466.53
2019-03-16T18:13:41.011Z,99472.72
2019-03-16T18:17:44.826Z,99462.82
2019-03-16T18:21:48.594Z,99463.77
2019-03-16T18:25:52.543Z,99458.59
2019-03-16T18:29:56.255Z,99451.77
2019-03-16T18:34:00.074Z,99447.16
2019-03-16T18:38:03.908Z,99445.33
2019-03-16T18:42:07.865Z,99444.80
2019-03-16T18:46:11.465Z,99445.61
2019-03-16T18:50:15.215Z,99442.50
2019-03-16T18:54:18.903Z,99442.97
2019-03-16T18:58:36.305Z,99431.20
2019-03-16T19:02:28.344Z,99432.66
2019-03-16T19:06:32.308Z,99430.86
2019-03-16T19:10:37.238Z,99423.38
2019-03-16T19:14:40.923Z,99424.66
2019-03-16T19:18:44.715Z,99422.91
2019-03-16T19:22:48.666Z,99424.53
2019-03-16T19:26:52.558Z,99425.08
2019-03-16T19:30:57.051Z,99422.58
2019-03-16T19:35:01.020Z,99420.14
2019-03-16T19:39:06.534Z,99411.39
2019-03-16T19:43:10.567Z,99414.45
2019-03-16T19:47:14.538Z,99415.65
2019-03-16T19:51:18.395Z,99414.63
2019-03-16T19:55:22.184Z,99415.17
2019-03-16T19:59:26.092Z,99405.61
2019-03-16T20:03:29.983Z,99414.11
2019-03-16T20:07:33.927Z,99406.03
2019-03-16T20:11:38.129Z,99404.20
2019-03-16T20:15:43.942Z,99405.73
2019-03-16T20:19:48.720Z,99395.70
2019-03-16T20:23:52.453Z,99397.14
2019-03-16T20:27:56.215Z,99400.02
2019-03-16T20:32:00.099Z,99403.92
2019-03-16T20:36:04.067Z,99407.09
2019-03-16T20:40:18.700Z,99400.30
2019-03-16T20:44:22.642Z,99406.65
2019-03-16T20:48:26.670Z,99408.58
2019-03-16T20:52:30.531Z,99398.06
2019-03-16T20:56:34.461Z,99401.16
2019-03-16T21:00:38.359Z,99397.67
2019-03-16T21:04:42.416Z,99402.11
2019-03-16T21:08:46.585Z,99391.94
2019-03-16T21:12:50.326Z,99392.01
2019-03-16T21:16:54.151Z,99379.27
2019-03-16T21:20:58.192Z,99388.03
2019-03-16T21:25:01.773Z,99384.19
2019-03-16T21:29:05.474Z,99369.28
2019-03-16T21:33:09.326Z,99361.33
2019-03-16T21:37:13.276Z,99366.45
2019-03-16T21:41:16.981Z,99366.45
2019-03-16T21:45:20.848Z,99358.63
2019-03-16T21:49:24.604Z,99357.69
2019-03-16T21:53:28.213Z,99343.06
2019-03-16T21:57:32.476Z,99342.98
2019-03-16T22:01:36.718Z,99337.80
2019-03-16T22:05:40.560Z,99324.85
2019-03-16T22:09:44.512Z,99320.88
2019-03-16T22:13:48.289Z,99314.39
2019-03-16T22:17:51.938Z,99307.10
2019-03-16T22:21:55.468Z,99305.36
2019-03-16T22:25:59.165Z,99304.48
2019-03-16T22:30:02.930Z,99301.37
2019-03-16T22:34:06.636Z,99296.38
2019-03-16T22:38:10.310Z,99282.84
2019-03-16T22:42:14.026Z,99279.89
2019-03-16T22:46:17.927Z,99282.73
2019-03-16T22:50:22.037Z,99278.05
2019-03-16T22:54:25.668Z,99272.40
2019-03-16T22:58:29.313Z,99268.02
2019-03-16T23:02:33.029Z,99263.04
2019-03-16T23:06:36.615Z,99256.55
2019-03-16T23:10:40.250Z,99251.98
2019-03-16T23:14:43.855Z,99249.55
2019-03-16T23:18:47.556Z,99247.33
2019-03-16T23:22:51.326Z,99239.22
2019-03-16T23:26:54.996Z,99220.13
2019-03-16T23:30:58.690Z,99226.42
2019-03-16T23:35:02.563Z,99220.29
2019-03-16T23:39:06.292Z,99218.01
2019-03-16T23:43:10.013Z,99219.62
2019-03-16T23:47:13.562Z,99218.20
2019-03-16T23:51:18.090Z,99205.91
2019-03-16T23:55:21.681Z,99199.11
2019-03-16T23:59:25.434Z,99192.23
